Time;durP1;ratioP1;P1;durP2;ratioP2;P2;SDS_P1;SDS_P2;PMS_P1;PMS_P2;Temp;Humidity;BMP_temperature;BMP_pressure;BME280_temperature;BME280_humidity;BME280_pressure;Samples;Min_cycle;Max_cycle;Signal;HPM_P1;HPM_P2
2022/10/29 00:02:14;;;;;;;24.02;13.85;;;;;;;;;;5114796;28;20202;-42
2022/10/29 00:04:41;;;;;;;39.60;13.32;;;;;;;;;;5114683;28;20214;-41
2022/10/29 00:07:08;;;;;;;21.52;13.48;;;;;;;;;;5115478;28;20221;-41
2022/10/29 00:09:35;;;;;;;21.08;13.30;;;;;;;;;;5114749;28;20206;-41
2022/10/29 00:12:02;;;;;;;26.70;12.68;;;;;;;;;;5115246;28;20230;-41
2022/10/29 00:14:29;;;;;;;21.63;12.63;;;;;;;;;;5116209;28;20213;-42
2022/10/29 00:16:56;;;;;;;25.17;13.52;;;;;;;;;;5118859;28;20232;-41
2022/10/29 00:19:23;;;;;;;24.05;12.23;;;;;;;;;;5118774;28;20201;-41
2022/10/29 00:21:50;;;;;;;21.73;13.10;;;;;;;;;;5118426;28;20618;-41
2022/10/29 00:24:17;;;;;;;20.50;13.55;;;;;;;;;;5118950;28;20564;-41
2022/10/29 00:26:44;;;;;;;21.98;12.38;;;;;;;;;;5118507;28;20754;-41
2022/10/29 00:29:11;;;;;;;21.50;13.20;;;;;;;;;;5118796;28;20222;-41
2022/10/29 00:31:38;;;;;;;18.25;12.45;;;;;;;;;;5118388;28;20198;-41
2022/10/29 00:34:06;;;;;;;18.92;12.57;;;;;;;;;;5118805;28;20670;-42
2022/10/29 00:36:32;;;;;;;23.50;12.88;;;;;;;;;;5118262;28;20642;-41
2022/10/29 00:38:59;;;;;;;25.52;12.60;;;;;;;;;;5118444;28;20205;-41
2022/10/29 00:41:28;;;;;;;22.40;13.23;;;;;;;;;;5118704;28;20202;-41
2022/10/29 00:44:14;;;;;;;21.63;12.88;;;;;;;;;;5117460;28;20206;-42
2022/10/29 00:46:44;;;;;;;19.65;12.20;;;;;;;;;;5118994;28;20202;-41
2022/10/29 00:49:11;;;;;;;24.10;13.40;;;;;;;;;;5118193;28;20576;-42
2022/10/29 00:51:38;;;;;;;19.40;12.30;;;;;;;;;;5117112;28;20198;-42
2022/10/29 00:54:08;;;;;;;25.55;12.05;;;;;;;;;;5118346;28;20221;-41
2022/10/29 00:56:37;;;;;;;22.13;12.13;;;;;;;;;;5118010;28;20654;-42
2022/10/29 00:59:05;;;;;;;19.35;12.13;;;;;;;;;;5118289;28;20236;-42
2022/10/29 01:01:32;;;;;;;18.73;13.07;;;;;;;;;;5117872;28;20198;-42
2022/10/29 01:03:59;;;;;;;19.08;11.35;;;;;;;;;;5117724;28;20221;-41
2022/10/29 01:06:28;;;;;;;19.92;12.45;;;;;;;;;;5117189;28;20210;-41
2022/10/29 01:08:54;;;;;;;21.65;12.40;;;;;;;;;;5117837;28;20197;-42
2022/10/29 01:11:30;;;;;;;20.83;12.40;;;;;;;;;;5117837;28;20190;-41
2022/10/29 01:14:13;;;;;;;20.75;12.60;;;;;;;;;;5117808;28;20205;-41
2022/10/29 01:16:49;;;;;;;19.48;12.13;;;;;;;;;;5116802;28;20515;-44
2022/10/29 01:19:31;;;;;;;22.15;11.95;;;;;;;;;;5116906;28;20194;-42
2022/10/29 01:22:01;;;;;;;21.90;12.30;;;;;;;;;;5117628;28;20182;-42
2022/10/29 01:24:46;;;;;;;19.48;11.93;;;;;;;;;;5117784;28;20281;-42
2022/10/29 01:27:37;;;;;;;18.73;12.27;;;;;;;;;;5116840;28;20638;-42
2022/10/29 01:30:29;;;;;;;19.27;12.23;;;;;;;;;;5117068;28;20515;-41
2022/10/29 01:33:12;;;;;;;21.15;12.85;;;;;;;;;;5117240;28;20206;-41
2022/10/29 01:35:44;;;;;;;24.10;12.00;;;;;;;;;;5116607;28;20213;-41
2022/10/29 01:38:48;;;;;;;21.95;12.00;;;;;;;;;;5117858;28;20494;-41
2022/10/29 01:41:48;;;;;;;22.17;12.95;;;;;;;;;;5114647;28;20206;-41
2022/10/29 01:44:15;;;;;;;19.35;12.63;;;;;;;;;;5112961;28;20250;-41
2022/10/29 01:46:46;;;;;;;20.92;12.98;;;;;;;;;;5116771;28;20198;-41
2022/10/29 01:49:18;;;;;;;22.77;12.40;;;;;;;;;;5116801;27;20210;-41
2022/10/29 01:51:48;;;;;;;18.98;12.35;;;;;;;;;;5116206;28;20194;-42
2022/10/29 01:54:15;;;;;;;19.25;12.55;;;;;;;;;;5116112;28;20230;-41
2022/10/29 01:56:42;;;;;;;25.25;13.30;;;;;;;;;;5116632;28;20657;-41
2022/10/29 01:59:11;;;;;;;20.30;12.48;;;;;;;;;;5116583;27;20226;-41
2022/10/29 02:02:10;;;;;;;22.08;13.35;;;;;;;;;;5101845;28;20533;-41
2022/10/29 02:04:54;;;;;;;19.15;12.90;;;;;;;;;;5117206;28;20214;-41
2022/10/29 02:07:43;;;;;;;29.90;13.18;;;;;;;;;;5115978;28;20182;-41
2022/10/29 02:10:13;;;;;;;21.95;11.98;;;;;;;;;;5117315;27;20206;-41
2022/10/29 02:12:49;;;;;;;20.95;12.85;;;;;;;;;;5117252;28;20209;-41
2022/10/29 02:15:20;;;;;;;20.23;12.93;;;;;;;;;;5115790;28;20216;-42
2022/10/29 02:17:47;;;;;;;20.73;12.90;;;;;;;;;;5115614;28;20206;-42
2022/10/29 02:20:14;;;;;;;23.70;12.70;;;;;;;;;;5115443;28;20271;-41
2022/10/29 02:22:42;;;;;;;22.02;13.27;;;;;;;;;;5116091;28;20623;-42
2022/10/29 02:25:09;;;;;;;25.42;13.05;;;;;;;;;;5115671;28;20297;-42
2022/10/29 02:27:37;;;;;;;20.75;12.98;;;;;;;;;;5116548;28;20289;-41
2022/10/29 02:30:05;;;;;;;19.52;12.60;;;;;;;;;;5116188;28;20202;-41
2022/10/29 02:32:31;;;;;;;24.42;12.15;;;;;;;;;;5116153;28;20201;-42
2022/10/29 02:34:59;;;;;;;20.88;12.23;;;;;;;;;;5116073;28;20253;-41
2022/10/29 02:37:27;;;;;;;21.40;12.88;;;;;;;;;;5115391;28;20263;-41
2022/10/29 02:39:54;;;;;;;24.27;12.65;;;;;;;;;;5115599;28;20259;-41
2022/10/29 02:42:21;;;;;;;20.10;12.35;;;;;;;;;;5115915;28;20217;-41
2022/10/29 02:44:48;;;;;;;21.45;12.95;;;;;;;;;;5116026;28;20201;-41
2022/10/29 02:47:15;;;;;;;21.90;12.75;;;;;;;;;;5115824;28;20202;-41
2022/10/29 02:49:42;;;;;;;20.90;12.23;;;;;;;;;;5115726;28;20217;-42
2022/10/29 02:52:09;;;;;;;19.23;11.90;;;;;;;;;;5115909;28;20202;-41
2022/10/29 02:54:38;;;;;;;19.00;12.15;;;;;;;;;;5115627;28;20217;-41
2022/10/29 02:57:05;;;;;;;19.13;11.75;;;;;;;;;;5115848;28;20198;-42
2022/10/29 02:59:32;;;;;;;22.00;12.48;;;;;;;;;;5115219;28;20230;-41
2022/10/29 03:01:59;;;;;;;22.83;12.15;;;;;;;;;;5115634;28;20638;-42
2022/10/29 03:04:26;;;;;;;19.80;11.43;;;;;;;;;;5115507;28;20241;-41
2022/10/29 03:06:53;;;;;;;20.73;11.70;;;;;;;;;;5115807;28;20201;-42
2022/10/29 03:09:20;;;;;;;19.98;11.85;;;;;;;;;;5115790;28;20201;-41
2022/10/29 03:11:47;;;;;;;20.30;11.27;;;;;;;;;;5115325;28;20217;-42
2022/10/29 03:14:14;;;;;;;21.67;11.07;;;;;;;;;;5115438;28;20202;-44
2022/10/29 03:16:41;;;;;;;18.50;11.85;;;;;;;;;;5115492;28;20234;-41
2022/10/29 03:19:08;;;;;;;18.70;11.35;;;;;;;;;;5115591;28;20190;-41
2022/10/29 03:21:35;;;;;;;21.65;11.10;;;;;;;;;;5115498;28;20210;-41
2022/10/29 03:24:03;;;;;;;18.98;11.30;;;;;;;;;;5115597;28;20204;-41
2022/10/29 03:26:30;;;;;;;18.30;10.90;;;;;;;;;;5115352;28;20222;-42
2022/10/29 03:28:57;;;;;;;18.73;11.68;;;;;;;;;;5115055;28;20231;-42
2022/10/29 03:31:24;;;;;;;20.20;10.85;;;;;;;;;;5115548;28;20198;-41
2022/10/29 03:33:51;;;;;;;18.85;11.07;;;;;;;;;;5115123;28;20650;-42
2022/10/29 03:36:18;;;;;;;17.98;11.55;;;;;;;;;;5114895;28;20221;-42
2022/10/29 03:38:45;;;;;;;16.83;11.60;;;;;;;;;;5115363;28;20225;-42
2022/10/29 03:41:12;;;;;;;22.92;11.90;;;;;;;;;;5115121;28;20213;-42
2022/10/29 03:43:39;;;;;;;20.83;10.55;;;;;;;;;;5115092;28;20202;-42
2022/10/29 03:46:06;;;;;;;21.42;11.18;;;;;;;;;;5115161;28;20201;-41
2022/10/29 03:48:34;;;;;;;17.10;10.32;;;;;;;;;;5115336;28;20186;-42
2022/10/29 03:51:04;;;;;;;19.25;11.70;;;;;;;;;;5118802;28;20202;-42
2022/10/29 03:53:33;;;;;;;21.23;11.23;;;;;;;;;;5119534;28;20202;-41
2022/10/29 03:56:00;;;;;;;16.92;11.00;;;;;;;;;;5119114;28;20237;-42
2022/10/29 03:58:28;;;;;;;17.95;11.00;;;;;;;;;;5118888;28;20639;-41
2022/10/29 04:01:00;;;;;;;21.02;11.25;;;;;;;;;;5119514;28;20230;-41
2022/10/29 04:03:28;;;;;;;19.33;10.55;;;;;;;;;;5119411;28;20200;-42
2022/10/29 04:05:56;;;;;;;19.52;10.73;;;;;;;;;;5119311;28;20210;-41
2022/10/29 04:08:24;;;;;;;16.23;9.93;;;;;;;;;;5118886;28;20202;-41
2022/10/29 04:10:51;;;;;;;18.98;10.60;;;;;;;;;;5118609;28;20234;-41
2022/10/29 04:13:19;;;;;;;20.80;10.52;;;;;;;;;;5135423;27;20194;-42
2022/10/29 04:15:46;;;;;;;21.38;11.23;;;;;;;;;;5118482;28;20225;-41
2022/10/29 04:18:13;;;;;;;15.60;9.85;;;;;;;;;;5118757;28;20205;-41
2022/10/29 04:20:40;;;;;;;15.52;10.07;;;;;;;;;;5118760;28;20243;-42
2022/10/29 04:23:28;;;;;;;18.25;10.93;;;;;;;;;;5118061;28;20194;-43
2022/10/29 04:26:15;;;;;;;18.08;10.52;;;;;;;;;;5118524;28;20209;-42
2022/10/29 04:29:02;;;;;;;16.58;10.15;;;;;;;;;;5118664;28;20202;-42
2022/10/29 04:31:29;;;;;;;17.73;10.07;;;;;;;;;;5118440;28;20198;-42
2022/10/29 04:33:56;;;;;;;18.80;10.02;;;;;;;;;;5118940;28;20271;-42
2022/10/29 04:36:23;;;;;;;16.13;10.27;;;;;;;;;;5118232;28;20225;-41
2022/10/29 04:38:50;;;;;;;16.05;10.25;;;;;;;;;;5118330;28;20206;-43
2022/10/29 04:41:17;;;;;;;18.77;11.93;;;;;;;;;;5134149;27;20706;-43
2022/10/29 04:43:44;;;;;;;19.45;11.38;;;;;;;;;;5133497;27;20198;-44
2022/10/29 04:46:11;;;;;;;16.05;10.07;;;;;;;;;;5132527;27;20270;-45
2022/10/29 04:48:38;;;;;;;15.32;10.45;;;;;;;;;;5132689;27;20197;-42
2022/10/29 04:51:05;;;;;;;17.63;10.25;;;;;;;;;;5132141;27;20619;-42
2022/10/29 04:53:32;;;;;;;15.52;10.02;;;;;;;;;;5134645;27;20206;-44
2022/10/29 04:56:00;;;;;;;17.48;9.88;;;;;;;;;;5136292;27;20312;-45
2022/10/29 04:58:27;;;;;;;16.00;9.65;;;;;;;;;;5136442;27;20197;-41
2022/10/29 05:01:00;;;;;;;17.75;9.82;;;;;;;;;;5135529;27;20229;-42
2022/10/29 05:03:28;;;;;;;17.83;10.52;;;;;;;;;;5134470;27;20190;-44
2022/10/29 05:05:55;;;;;;;15.38;9.27;;;;;;;;;;5136139;27;20197;-41
2022/10/29 05:08:22;;;;;;;17.65;10.05;;;;;;;;;;5136445;27;20626;-42
2022/10/29 05:10:49;;;;;;;15.50;10.00;;;;;;;;;;5136546;27;20235;-42
2022/10/29 05:13:16;;;;;;;17.50;9.77;;;;;;;;;;5132294;27;20189;-41
2022/10/29 05:15:49;;;;;;;18.15;10.43;;;;;;;;;;5135461;27;20206;-42
2022/10/29 05:18:20;;;;;;;18.38;9.30;;;;;;;;;;5134832;27;20666;-41
2022/10/29 05:20:47;;;;;;;16.88;9.70;;;;;;;;;;5136291;27;20213;-42
2022/10/29 05:23:14;;;;;;;19.05;8.95;;;;;;;;;;5135113;27;20200;-44
2022/10/29 05:25:41;;;;;;;15.60;8.30;;;;;;;;;;5136088;27;20205;-45
2022/10/29 05:28:12;;;;;;;19.35;9.77;;;;;;;;;;5135376;27;20198;-44
2022/10/29 05:30:40;;;;;;;16.33;9.60;;;;;;;;;;5134925;27;20215;-43
2022/10/29 05:33:08;;;;;;;18.80;9.68;;;;;;;;;;5135347;27;20181;-42
2022/10/29 05:35:35;;;;;;;14.82;8.85;;;;;;;;;;5137385;27;20213;-43
2022/10/29 05:38:03;;;;;;;16.38;9.57;;;;;;;;;;5137359;27;20524;-42
2022/10/29 05:40:31;;;;;;;19.65;9.18;;;;;;;;;;5133790;27;20205;-43
2022/10/29 05:42:58;;;;;;;17.85;8.77;;;;;;;;;;5115618;27;20218;-42
2022/10/29 05:45:25;;;;;;;18.00;8.63;;;;;;;;;;5116221;28;20234;-43
2022/10/29 05:48:00;;;;;;;16.95;8.75;;;;;;;;;;5115808;27;20665;-41
2022/10/29 05:50:28;;;;;;;14.75;8.38;;;;;;;;;;5116358;28;20245;-42
2022/10/29 05:52:57;;;;;;;14.85;8.57;;;;;;;;;;5115700;27;20237;-43
2022/10/29 05:55:25;;;;;;;13.90;8.38;;;;;;;;;;5115926;28;20210;-42
2022/10/29 05:57:56;;;;;;;16.38;8.45;;;;;;;;;;5115587;27;20229;-43
2022/10/29 06:00:25;;;;;;;17.95;8.88;;;;;;;;;;5116117;28;20325;-42
2022/10/29 06:02:52;;;;;;;13.68;8.93;;;;;;;;;;5115706;27;20229;-43
2022/10/29 06:05:20;;;;;;;15.23;9.18;;;;;;;;;;5115925;28;20221;-42
2022/10/29 06:07:58;;;;;;;16.38;8.88;;;;;;;;;;5114452;28;20221;-44
2022/10/29 06:10:28;;;;;;;19.60;9.73;;;;;;;;;;5114675;28;20245;-42
2022/10/29 06:12:55;;;;;;;15.77;9.32;;;;;;;;;;5114452;27;20222;-43
2022/10/29 06:15:22;;;;;;;15.50;8.90;;;;;;;;;;5115455;28;20235;-42
2022/10/29 06:17:49;;;;;;;17.23;8.88;;;;;;;;;;5115219;27;20229;-43
2022/10/29 06:20:19;;;;;;;14.57;8.70;;;;;;;;;;5115836;28;20225;-43
2022/10/29 06:22:47;;;;;;;18.38;8.45;;;;;;;;;;5115274;27;20221;-42
2022/10/29 06:25:14;;;;;;;14.63;8.73;;;;;;;;;;5114268;28;20320;-42
2022/10/29 06:27:41;;;;;;;18.00;8.75;;;;;;;;;;5151019;27;20251;-43
2022/10/29 06:30:08;;;;;;;14.70;9.05;;;;;;;;;;5156546;27;20226;-44
2022/10/29 06:32:36;;;;;;;17.13;9.68;;;;;;;;;;5156148;27;20221;-44
2022/10/29 06:35:03;;;;;;;12.60;8.32;;;;;;;;;;5156546;27;20319;-43
2022/10/29 06:37:32;;;;;;;13.95;8.50;;;;;;;;;;5156337;27;20242;-42
2022/10/29 06:39:59;;;;;;;17.67;7.85;;;;;;;;;;5141662;27;20308;-42
2022/10/29 06:42:26;;;;;;;13.52;7.85;;;;;;;;;;5135515;27;20558;-43
2022/10/29 06:44:53;;;;;;;16.33;8.50;;;;;;;;;;5135270;27;20555;-42
2022/10/29 06:47:20;;;;;;;13.23;7.72;;;;;;;;;;5135266;27;20229;-42
2022/10/29 06:49:47;;;;;;;12.05;7.43;;;;;;;;;;5135298;27;20221;-42
2022/10/29 06:52:14;;;;;;;13.80;8.07;;;;;;;;;;5135186;27;20232;-43
2022/10/29 06:54:41;;;;;;;17.52;9.00;;;;;;;;;;5135160;27;20221;-42
2022/10/29 06:57:08;;;;;;;16.98;8.80;;;;;;;;;;5148662;27;20220;-43
2022/10/29 06:59:35;;;;;;;16.08;8.10;;;;;;;;;;5146723;27;20749;-44
2022/10/29 07:02:02;;;;;;;18.92;8.73;;;;;;;;;;5135697;27;20285;-43
2022/10/29 07:04:29;;;;;;;13.98;8.65;;;;;;;;;;5135895;27;20233;-43
2022/10/29 07:06:56;;;;;;;14.18;8.65;;;;;;;;;;5136431;27;20219;-43
2022/10/29 07:09:24;;;;;;;14.82;8.38;;;;;;;;;;5136118;27;20553;-43
2022/10/29 07:11:51;;;;;;;13.18;8.43;;;;;;;;;;5135709;27;20208;-42
2022/10/29 07:14:18;;;;;;;14.80;9.15;;;;;;;;;;5135856;27;20202;-43
2022/10/29 07:16:45;;;;;;;15.40;8.75;;;;;;;;;;5136019;27;20217;-43
2022/10/29 07:19:12;;;;;;;14.73;8.32;;;;;;;;;;5135785;27;20201;-43
2022/10/29 07:21:42;;;;;;;20.45;9.02;;;;;;;;;;5135742;27;20212;-45
2022/10/29 07:24:09;;;;;;;14.15;7.88;;;;;;;;;;5135168;27;20209;-43
2022/10/29 07:26:37;;;;;;;16.48;8.57;;;;;;;;;;5135929;27;20215;-43
2022/10/29 07:29:04;;;;;;;15.52;8.93;;;;;;;;;;5135968;28;20197;-42
2022/10/29 07:31:31;;;;;;;13.90;8.25;;;;;;;;;;5135882;27;20205;-43
2022/10/29 07:33:58;;;;;;;15.90;8.35;;;;;;;;;;5136153;27;20205;-43
2022/10/29 07:36:25;;;;;;;16.52;9.30;;;;;;;;;;5135611;27;20285;-43
2022/10/29 07:38:52;;;;;;;15.00;8.85;;;;;;;;;;5135652;27;20234;-44
2022/10/29 07:41:19;;;;;;;16.67;9.75;;;;;;;;;;5135915;27;20539;-42
2022/10/29 07:43:46;;;;;;;16.70;8.90;;;;;;;;;;5135186;28;20761;-48
2022/10/29 07:46:13;;;;;;;14.50;9.32;;;;;;;;;;5134032;27;20232;-44
2022/10/29 07:48:40;;;;;;;17.88;9.05;;;;;;;;;;5135411;27;20205;-42
2022/10/29 07:51:07;;;;;;;15.00;8.50;;;;;;;;;;5135651;27;20202;-42
2022/10/29 07:53:34;;;;;;;13.65;8.30;;;;;;;;;;5135850;27;20201;-42
2022/10/29 07:56:01;;;;;;;15.43;8.35;;;;;;;;;;5135240;27;20221;-44
2022/10/29 07:58:28;;;;;;;17.67;7.60;;;;;;;;;;5135160;27;20204;-42
2022/10/29 08:00:58;;;;;;;15.00;7.97;;;;;;;;;;5134521;28;20233;-43
2022/10/29 08:03:26;;;;;;;16.08;8.63;;;;;;;;;;5134385;27;20188;-43
2022/10/29 08:05:55;;;;;;;19.17;9.27;;;;;;;;;;5134258;27;20204;-43
2022/10/29 08:08:23;;;;;;;20.50;8.75;;;;;;;;;;5134473;28;20197;-43
2022/10/29 08:10:50;;;;;;;11.93;7.63;;;;;;;;;;5135642;28;20194;-43
2022/10/29 08:13:17;;;;;;;12.77;8.23;;;;;;;;;;5135556;28;20197;-43
2022/10/29 08:15:45;;;;;;;15.07;8.43;;;;;;;;;;5135512;27;20270;-44
2022/10/29 08:18:16;;;;;;;14.75;8.18;;;;;;;;;;5134688;28;20201;-43
2022/10/29 08:20:44;;;;;;;15.55;8.30;;;;;;;;;;5134435;28;20201;-43
2022/10/29 08:23:12;;;;;;;16.83;8.80;;;;;;;;;;5135228;27;20487;-43
2022/10/29 08:25:41;;;;;;;10.52;7.32;;;;;;;;;;5135304;27;20209;-45
2022/10/29 08:28:13;;;;;;;13.55;8.40;;;;;;;;;;5135501;27;20194;-43
2022/10/29 08:30:42;;;;;;;20.65;8.23;;;;;;;;;;5135392;27;20197;-43
2022/10/29 08:33:10;;;;;;;13.02;7.82;;;;;;;;;;5134850;27;20208;-44
2022/10/29 08:35:37;;;;;;;17.85;8.13;;;;;;;;;;5124768;28;20262;-43
2022/10/29 08:38:04;;;;;;;15.75;7.85;;;;;;;;;;5117723;28;20662;-43
2022/10/29 08:40:46;;;;;;;14.82;7.90;;;;;;;;;;5123880;27;20198;-42
2022/10/29 08:43:22;;;;;;;18.33;10.10;;;;;;;;;;5119073;27;20198;-43
2022/10/29 08:45:50;;;;;;;15.20;9.50;;;;;;;;;;5100662;28;20205;-43
2022/10/29 08:48:27;;;;;;;17.42;8.50;;;;;;;;;;5117504;28;20563;-44
2022/10/29 08:51:06;;;;;;;14.85;8.27;;;;;;;;;;5117945;28;20186;-43
2022/10/29 08:53:39;;;;;;;14.27;8.10;;;;;;;;;;5123339;27;20208;-43
2022/10/29 08:56:14;;;;;;;17.85;7.93;;;;;;;;;;5137685;27;20634;-44
2022/10/29 08:58:52;;;;;;;17.08;7.85;;;;;;;;;;5137539;27;20204;-43
2022/10/29 09:01:21;;;;;;;18.92;8.43;;;;;;;;;;5138992;27;20201;-43
2022/10/29 09:03:50;;;;;;;17.15;8.50;;;;;;;;;;5138602;27;20274;-43
2022/10/29 09:06:43;;;;;;;16.48;8.50;;;;;;;;;;5138470;27;20205;-43
2022/10/29 09:09:28;;;;;;;17.77;8.13;;;;;;;;;;5137728;27;20558;-43
2022/10/29 09:12:37;;;;;;;12.73;8.82;;;;;;;;;;5137272;27;20192;-43
2022/10/29 09:15:14;;;;;;;14.98;8.30;;;;;;;;;;5137964;27;20208;-44
2022/10/29 09:17:47;;;;;;;19.30;8.57;;;;;;;;;;5138339;27;20221;-43
2022/10/29 09:20:45;;;;;;;11.82;7.90;;;;;;;;;;5138110;27;20212;-43
2022/10/29 09:23:18;;;;;;;17.63;8.90;;;;;;;;;;5126963;27;20194;-43
2022/10/29 09:25:50;;;;;;;15.05;7.97;;;;;;;;;;5117593;28;20202;-43
2022/10/29 09:28:23;;;;;;;14.82;7.38;;;;;;;;;;5125191;27;20201;-43
2022/10/29 09:31:15;;;;;;;15.90;8.38;;;;;;;;;;5135975;27;20201;-44
2022/10/29 09:33:44;;;;;;;12.48;8.02;;;;;;;;;;5137939;27;20280;-45
2022/10/29 09:36:15;;;;;;;14.88;8.52;;;;;;;;;;5136272;27;20197;-46
2022/10/29 09:38:57;;;;;;;19.65;8.13;;;;;;;;;;5119838;27;20194;-44
2022/10/29 09:41:26;;;;;;;14.10;8.23;;;;;;;;;;5136269;27;20190;-45
2022/10/29 09:44:00;;;;;;;13.35;8.55;;;;;;;;;;5119250;27;20193;-45
2022/10/29 09:46:34;;;;;;;16.08;8.18;;;;;;;;;;5134877;27;20181;-46
2022/10/29 09:49:08;;;;;;;23.23;8.50;;;;;;;;;;5114476;28;20190;-44
2022/10/29 09:51:57;;;;;;;18.77;9.40;;;;;;;;;;5116035;27;20182;-45
2022/10/29 09:54:26;;;;;;;18.85;7.88;;;;;;;;;;5115913;28;20194;-46
2022/10/29 09:56:54;;;;;;;15.30;8.20;;;;;;;;;;5132603;27;20217;-44
2022/10/29 09:59:37;;;;;;;15.90;7.80;;;;;;;;;;5135911;27;20221;-47
2022/10/29 10:02:28;;;;;;;14.25;8.23;;;;;;;;;;5138533;27;20189;-44
2022/10/29 10:05:00;;;;;;;16.75;7.95;;;;;;;;;;5157522;27;20205;-44
2022/10/29 10:07:28;;;;;;;16.92;8.02;;;;;;;;;;5156444;27;20196;-47
2022/10/29 10:09:57;;;;;;;15.02;7.18;;;;;;;;;;5157864;27;20208;-43
2022/10/29 10:12:42;;;;;;;17.05;7.85;;;;;;;;;;5153762;27;20630;-44
2022/10/29 10:15:15;;;;;;;16.20;8.43;;;;;;;;;;5135881;27;20197;-45
2022/10/29 10:17:58;;;;;;;18.33;8.38;;;;;;;;;;5136387;27;20220;-45
2022/10/29 10:20:26;;;;;;;17.70;8.93;;;;;;;;;;5136438;27;20513;-45
2022/10/29 10:22:53;;;;;;;15.05;8.30;;;;;;;;;;5135289;27;20571;-46
2022/10/29 10:25:51;;;;;;;17.33;8.02;;;;;;;;;;5135250;27;20569;-45
2022/10/29 10:28:20;;;;;;;18.45;8.07;;;;;;;;;;5092914;28;20210;-44
2022/10/29 10:31:03;;;;;;;10.68;6.97;;;;;;;;;;5093018;28;20736;-44
2022/10/29 10:33:32;;;;;;;16.40;7.85;;;;;;;;;;5093473;28;20206;-44
2022/10/29 10:36:07;;;;;;;12.27;7.57;;;;;;;;;;5091889;28;20199;-44
2022/10/29 10:38:44;;;;;;;13.13;7.63;;;;;;;;;;5056939;28;20226;-44
2022/10/29 10:41:13;;;;;;;19.15;7.95;;;;;;;;;;5071712;28;20191;-48
2022/10/29 10:43:42;;;;;;;14.90;8.00;;;;;;;;;;5073238;28;20645;-45
2022/10/29 10:46:24;;;;;;;15.13;8.10;;;;;;;;;;5055016;28;20223;-45
2022/10/29 10:49:04;;;;;;;20.00;8.35;;;;;;;;;;5075566;28;20284;-45
2022/10/29 10:51:33;;;;;;;16.27;7.20;;;;;;;;;;5083618;28;20191;-45
2022/10/29 10:54:03;;;;;;;17.15;7.45;;;;;;;;;;5092537;28;20203;-45
2022/10/29 10:56:31;;;;;;;13.48;6.88;;;;;;;;;;5091629;28;20624;-45
2022/10/29 10:59:01;;;;;;;16.08;7.60;;;;;;;;;;5065895;28;20214;-44
2022/10/29 11:01:35;;;;;;;18.35;8.15;;;;;;;;;;5092547;28;20199;-45
2022/10/29 11:04:16;;;;;;;18.70;8.30;;;;;;;;;;5084561;27;20296;-46
2022/10/29 11:06:47;;;;;;;16.75;7.40;;;;;;;;;;5134612;27;20260;-44
2022/10/29 11:09:20;;;;;;;18.83;7.72;;;;;;;;;;5134374;27;20196;-45
2022/10/29 11:12:08;;;;;;;15.52;8.00;;;;;;;;;;5133843;27;20506;-43
2022/10/29 11:14:43;;;;;;;15.90;7.30;;;;;;;;;;5132891;27;20205;-45
2022/10/29 11:17:27;;;;;;;13.57;8.50;;;;;;;;;;5131812;27;20273;-45
2022/10/29 11:19:58;;;;;;;18.95;8.05;;;;;;;;;;5131649;27;20197;-48
2022/10/29 11:22:59;;;;;;;22.90;9.35;;;;;;;;;;5131653;27;20185;-45
2022/10/29 11:25:31;;;;;;;18.80;8.60;;;;;;;;;;5133622;28;20216;-47
2022/10/29 11:28:31;;;;;;;19.20;9.20;;;;;;;;;;5133658;28;20190;-43
2022/10/29 11:31:12;;;;;;;16.98;8.52;;;;;;;;;;5119269;28;20190;-44
2022/10/29 11:33:50;;;;;;;19.58;8.52;;;;;;;;;;5133666;28;20185;-44
2022/10/29 11:36:26;;;;;;;19.33;9.23;;;;;;;;;;5134107;27;20201;-44
2022/10/29 11:39:06;;;;;;;23.00;9.32;;;;;;;;;;5131460;28;20867;-45
2022/10/29 11:41:42;;;;;;;18.17;7.97;;;;;;;;;;5156957;27;20186;-48
2022/10/29 11:44:11;;;;;;;13.95;7.78;;;;;;;;;;5131483;28;20270;-46
2022/10/29 11:46:53;;;;;;;14.07;8.27;;;;;;;;;;5138139;27;20209;-46
2022/10/29 11:49:39;;;;;;;15.95;7.95;;;;;;;;;;5133356;27;20189;-44
2022/10/29 11:52:12;;;;;;;14.63;8.05;;;;;;;;;;5131690;28;20254;-45
2022/10/29 11:55:00;;;;;;;16.60;8.57;;;;;;;;;;5134128;28;20200;-45
2022/10/29 11:57:37;;;;;;;15.27;9.23;;;;;;;;;;5131318;28;20212;-45
2022/10/29 12:00:04;;;;;;;17.88;8.77;;;;;;;;;;5132513;27;20213;-46
2022/10/29 12:03:25;;;;;;;13.63;8.20;;;;;;;;;;5133465;28;20634;-44
2022/10/29 12:06:01;;;;;;;16.13;9.15;;;;;;;;;;5080642;27;20249;-46
2022/10/29 12:08:36;;;;;;;14.50;9.77;;;;;;;;;;5130510;28;20215;-45
2022/10/29 12:11:57;;;;;;;19.33;9.30;;;;;;;;;;5128467;27;20185;-49
2022/10/29 12:14:43;;;;;;;20.30;9.90;;;;;;;;;;5074259;28;20199;-46
2022/10/29 12:17:33;;;;;;;20.70;10.30;;;;;;;;;;5134805;27;20657;-44
2022/10/29 12:20:13;;;;;;;18.70;9.57;;;;;;;;;;5079179;28;20217;-47
2022/10/29 12:22:49;;;;;;;18.58;8.48;;;;;;;;;;5134723;27;20521;-45
2022/10/29 12:25:36;;;;;;;18.08;7.93;;;;;;;;;;5132834;27;20246;-44
2022/10/29 12:28:18;;;;;;;19.30;8.85;;;;;;;;;;5139514;27;20178;-45
2022/10/29 12:31:03;;;;;;;23.58;9.55;;;;;;;;;;5138563;27;20280;-45
2022/10/29 12:33:59;;;;;;;18.33;8.80;;;;;;;;;;5128348;27;20235;-45
2022/10/29 12:36:52;;;;;;;18.75;9.18;;;;;;;;;;5117640;28;20218;-45
2022/10/29 12:39:30;;;;;;;26.42;9.43;;;;;;;;;;5132004;27;20239;-46
2022/10/29 12:42:00;;;;;;;15.93;8.43;;;;;;;;;;5135870;27;20225;-46
2022/10/29 12:44:45;;;;;;;15.23;7.85;;;;;;;;;;5136877;27;20673;-45
2022/10/29 12:47:24;;;;;;;19.13;8.80;;;;;;;;;;5136791;27;20232;-45
2022/10/29 12:49:51;;;;;;;19.38;8.10;;;;;;;;;;5137834;27;20289;-45
2022/10/29 12:52:28;;;;;;;16.73;8.80;;;;;;;;;;5136948;27;20655;-47
2022/10/29 12:54:56;;;;;;;17.67;8.70;;;;;;;;;;5134503;27;20240;-44
2022/10/29 12:57:34;;;;;;;19.90;8.80;;;;;;;;;;5135185;27;20233;-45
2022/10/29 13:00:23;;;;;;;19.95;9.13;;;;;;;;;;5135972;27;20236;-46
2022/10/29 13:02:51;;;;;;;19.25;9.65;;;;;;;;;;5133260;27;20213;-45
2022/10/29 13:05:37;;;;;;;18.35;9.52;;;;;;;;;;5135299;27;20220;-46
2022/10/29 13:08:04;;;;;;;17.58;10.57;;;;;;;;;;5135647;27;20223;-45
2022/10/29 13:10:32;;;;;;;22.00;11.27;;;;;;;;;;5136129;27;20304;-45
2022/10/29 13:13:17;;;;;;;25.55;10.85;;;;;;;;;;5135574;27;20252;-45
2022/10/29 13:15:48;;;;;;;21.63;11.60;;;;;;;;;;5135660;27;20217;-46
2022/10/29 13:18:19;;;;;;;24.10;12.57;;;;;;;;;;5136617;27;20548;-44
2022/10/29 13:20:51;;;;;;;23.83;12.43;;;;;;;;;;5135745;27;20212;-44
2022/10/29 13:23:21;;;;;;;24.02;11.85;;;;;;;;;;5135181;27;20221;-46
2022/10/29 13:25:53;;;;;;;49.40;12.60;;;;;;;;;;5132626;27;20221;-44
2022/10/29 13:28:19;;;;;;;19.42;11.00;;;;;;;;;;5134184;27;20720;-44
2022/10/29 13:30:58;;;;;;;21.88;11.10;;;;;;;;;;5135146;27;20312;-44
2022/10/29 13:33:26;;;;;;;54.72;13.18;;;;;;;;;;5135839;27;20209;-47
2022/10/29 13:35:59;;;;;;;32.45;11.75;;;;;;;;;;5135427;27;20217;-46
2022/10/29 13:38:49;;;;;;;22.00;11.68;;;;;;;;;;5136038;27;20313;-44
2022/10/29 13:41:39;;;;;;;25.95;12.50;;;;;;;;;;5136868;27;20225;-45
2022/10/29 13:44:06;;;;;;;21.45;12.50;;;;;;;;;;5136607;27;20245;-44
2022/10/29 13:46:48;;;;;;;24.45;11.68;;;;;;;;;;5136755;27;20217;-46
2022/10/29 13:49:19;;;;;;;21.35;11.23;;;;;;;;;;5127944;27;20289;-47
2022/10/29 13:51:54;;;;;;;25.10;14.05;;;;;;;;;;5135459;27;20308;-45
2022/10/29 13:54:29;;;;;;;26.45;14.30;;;;;;;;;;5134124;27;20220;-45
2022/10/29 13:57:04;;;;;;;28.20;12.15;;;;;;;;;;5134818;27;20528;-44
2022/10/29 13:59:41;;;;;;;22.70;14.23;;;;;;;;;;5133240;27;20242;-43
2022/10/29 14:02:19;;;;;;;27.40;14.13;;;;;;;;;;5133908;27;20209;-44
2022/10/29 14:04:50;;;;;;;23.25;14.70;;;;;;;;;;5133025;27;20213;-46
2022/10/29 14:07:20;;;;;;;23.40;13.77;;;;;;;;;;5134520;27;20217;-45
2022/10/29 14:09:52;;;;;;;29.77;14.77;;;;;;;;;;5133841;27;20221;-43
2022/10/29 14:12:23;;;;;;;26.77;14.75;;;;;;;;;;5135291;27;20205;-45
2022/10/29 14:14:50;;;;;;;29.02;14.32;;;;;;;;;;5133580;27;20564;-43
2022/10/29 14:17:17;;;;;;;24.20;15.02;;;;;;;;;;5134749;27;20281;-45
2022/10/29 14:19:50;;;;;;;30.83;14.40;;;;;;;;;;5134416;27;20743;-44
2022/10/29 14:22:21;;;;;;;23.63;15.70;;;;;;;;;;5134843;27;20228;-43
2022/10/29 14:24:48;;;;;;;23.73;13.60;;;;;;;;;;5133466;27;20305;-44
2022/10/29 14:27:16;;;;;;;20.13;13.60;;;;;;;;;;5134564;27;20213;-44
2022/10/29 14:29:43;;;;;;;22.23;11.63;;;;;;;;;;5134180;27;20586;-46
2022/10/29 14:32:17;;;;;;;24.98;13.05;;;;;;;;;;5134727;27;20270;-43
2022/10/29 14:34:49;;;;;;;23.30;12.10;;;;;;;;;;5130753;27;20208;-46
2022/10/29 14:37:30;;;;;;;20.48;11.68;;;;;;;;;;5132694;27;20217;-46
2022/10/29 14:40:00;;;;;;;22.52;11.82;;;;;;;;;;5131743;27;20304;-46
2022/10/29 14:42:37;;;;;;;20.75;11.77;;;;;;;;;;5134693;27;20220;-45
2022/10/29 14:45:07;;;;;;;19.85;12.88;;;;;;;;;;5131949;27;20227;-46
2022/10/29 14:47:36;;;;;;;20.55;11.20;;;;;;;;;;5130178;27;20213;-46
2022/10/29 14:50:05;;;;;;;23.85;13.25;;;;;;;;;;5131891;27;20547;-46
2022/10/29 14:52:33;;;;;;;25.23;12.80;;;;;;;;;;5132008;27;20209;-45
2022/10/29 14:55:06;;;;;;;21.45;12.40;;;;;;;;;;5130711;27;20225;-45